createdAt,value
2022-08-21T00:02:22.794Z,74.85
2022-08-21T00:07:25.596Z,72.83
2022-08-21T00:12:29.948Z,73.96
2022-08-21T00:15:02.551Z,73.91
2022-08-21T00:17:31.076Z,73.32
2022-08-21T00:20:00.689Z,73.74
2022-08-21T00:22:29.033Z,75.05
2022-08-21T00:25:02.863Z,74.72
2022-08-21T00:27:32.881Z,73.94
2022-08-21T00:30:07.596Z,74.12
2022-08-21T00:32:36.373Z,74.52
2022-08-21T00:35:13.173Z,73.89
2022-08-21T00:37:48.023Z,74.09
2022-08-21T00:40:17.751Z,73.98
2022-08-21T00:42:53.766Z,74.07
2022-08-21T00:45:22.763Z,75.13
2022-08-21T00:47:51.856Z,75.44
2022-08-21T00:50:21.527Z,74.99
2022-08-21T00:52:53.341Z,75.34
2022-08-21T00:55:22.739Z,75.90
2022-08-21T00:57:57.081Z,75.42
2022-08-21T01:00:36.013Z,76.58
2022-08-21T01:03:09.071Z,76.21
2022-08-21T01:05:41.070Z,77.38
2022-08-21T01:08:09.974Z,75.86
2022-08-21T01:10:39.048Z,76.04
2022-08-21T01:13:10.837Z,76.18
2022-08-21T01:15:41.944Z,77.88
2022-08-21T01:18:12.013Z,76.11
2022-08-21T01:20:42.912Z,76.81
2022-08-21T01:23:12.693Z,77.46
2022-08-21T01:25:42.351Z,76.23
2022-08-21T01:28:13.279Z,77.61
2022-08-21T01:30:51.142Z,76.32
2022-08-21T01:33:21.415Z,76.96
2022-08-21T01:35:55.358Z,77.07
2022-08-21T01:38:32.410Z,78.03
2022-08-21T01:41:03.920Z,77.33
2022-08-21T01:43:39.621Z,77.25
2022-08-21T01:46:14.613Z,77.93
2022-08-21T01:48:43.396Z,77.79
2022-08-21T01:51:13.933Z,76.79
2022-08-21T01:53:43.617Z,75.91
2022-08-21T01:56:16.719Z,75.95
2022-08-21T01:58:47.090Z,75.57
2022-08-21T02:01:16.094Z,76.73
2022-08-21T02:03:44.791Z,76.61
2022-08-21T02:06:19.308Z,77.38
2022-08-21T02:08:49.310Z,77.41
2022-08-21T02:11:18.627Z,77.07
2022-08-21T02:13:46.923Z,77.69
2022-08-21T02:16:20.244Z,77.79
2022-08-21T02:18:49.527Z,77.17
2022-08-21T02:21:23.124Z,76.20
2022-08-21T02:23:52.832Z,74.93
2022-08-21T02:26:24.407Z,77.27
2022-08-21T02:28:53.009Z,76.49
2022-08-21T02:31:25.638Z,76.59
2022-08-21T02:33:53.973Z,76.04
2022-08-21T02:36:25.775Z,76.01
2022-08-21T02:38:55.637Z,77.67
2022-08-21T02:41:27.277Z,75.72
2022-08-21T02:43:55.660Z,75.07
2022-08-21T02:46:29.875Z,74.64
2022-08-21T02:48:58.246Z,73.66
2022-08-21T02:51:30.127Z,74.30
2022-08-21T02:53:59.792Z,73.65
2022-08-21T02:56:31.565Z,74.88
2022-08-21T02:59:00.338Z,74.42
2022-08-21T03:01:31.048Z,74.68
2022-08-21T03:04:00.004Z,76.84
2022-08-21T03:06:30.892Z,77.11
2022-08-21T03:09:00.822Z,76.49
2022-08-21T03:11:37.205Z,77.54
2022-08-21T03:14:06.250Z,78.38
2022-08-21T03:16:41.407Z,78.90
2022-08-21T03:19:09.734Z,78.81
2022-08-21T03:21:39.816Z,77.08
2022-08-21T03:24:10.013Z,76.29
2022-08-21T03:26:40.119Z,76.79
2022-08-21T03:29:09.816Z,77.35
2022-08-21T03:31:42.590Z,76.75
2022-08-21T03:34:11.794Z,77.27
2022-08-21T03:36:42.487Z,76.79
2022-08-21T03:39:12.238Z,78.00
2022-08-21T03:41:48.327Z,77.25
2022-08-21T03:44:16.723Z,76.98
2022-08-21T03:46:46.870Z,78.81
2022-08-21T03:49:15.252Z,78.75
2022-08-21T03:51:59.112Z,78.57
2022-08-21T03:54:30.145Z,78.36
2022-08-21T03:56:58.505Z,78.05
2022-08-21T03:59:32.253Z,78.08
2022-08-21T04:02:01.740Z,78.66
2022-08-21T04:04:33.548Z,76.81
2022-08-21T04:07:01.928Z,77.36
2022-08-21T04:09:36.798Z,77.65
2022-08-21T04:12:06.869Z,77.90
2022-08-21T04:14:36.952Z,78.69
2022-08-21T04:17:05.576Z,77.98
2022-08-21T04:19:37.301Z,77.98
2022-08-21T04:22:06.151Z,78.18
2022-08-21T04:24:38.476Z,78.53
2022-08-21T04:27:07.062Z,77.45
2022-08-21T04:29:44.763Z,77.78
2022-08-21T04:32:13.400Z,77.58
2022-08-21T04:34:42.442Z,76.66
2022-08-21T04:37:16.335Z,80.07
2022-08-21T04:39:49.357Z,78.92
2022-08-21T04:42:26.950Z,77.30
2022-08-21T04:44:57.431Z,77.81
2022-08-21T04:47:52.373Z,75.73
2022-08-21T04:50:15.427Z,76.62
2022-08-21T04:52:54.632Z,77.62
2022-08-21T04:55:24.626Z,75.32
2022-08-21T04:57:59.925Z,76.65
2022-08-21T05:00:29.719Z,75.08
2022-08-21T05:03:01.113Z,75.70
2022-08-21T05:05:32.856Z,75.75
2022-08-21T05:08:04.391Z,76.15
2022-08-21T05:10:44.214Z,75.47
2022-08-21T05:13:18.223Z,74.47
2022-08-21T05:15:46.690Z,74.41
2022-08-21T05:18:20.795Z,74.82
2022-08-21T05:20:49.147Z,75.07
2022-08-21T05:23:23.771Z,74.41
2022-08-21T05:25:53.467Z,75.47
2022-08-21T05:28:26.898Z,75.60
2022-08-21T05:30:55.536Z,75.17
2022-08-21T05:33:25.334Z,73.95
2022-08-21T05:35:54.028Z,74.17
2022-08-21T05:38:25.797Z,73.74
2022-08-21T05:40:55.935Z,74.54
2022-08-21T05:43:27.794Z,73.43
2022-08-21T05:45:56.443Z,72.98
2022-08-21T05:48:25.644Z,73.42
2022-08-21T05:50:55.484Z,73.46
2022-08-21T05:53:30.537Z,73.74
2022-08-21T05:56:00.215Z,73.18
2022-08-21T05:58:31.546Z,72.63
2022-08-21T06:01:00.587Z,71.10
2022-08-21T06:03:31.840Z,71.56
2022-08-21T06:06:00.206Z,71.60
2022-08-21T06:08:36.695Z,73.97
2022-08-21T06:11:07.020Z,73.14
2022-08-21T06:13:36.489Z,72.49
2022-08-21T06:16:05.982Z,72.56
2022-08-21T06:18:40.690Z,71.95
2022-08-21T06:21:09.514Z,72.69
2022-08-21T06:23:38.192Z,72.90
2022-08-21T06:26:08.408Z,72.37
2022-08-21T06:28:38.044Z,72.67
2022-08-21T06:31:12.042Z,71.60
2022-08-21T06:33:40.944Z,71.90
2022-08-21T06:36:10.228Z,72.78
2022-08-21T06:38:51.261Z,72.01
2022-08-21T06:41:26.417Z,71.20
2022-08-21T06:43:55.443Z,71.40
2022-08-21T06:46:25.552Z,71.39
2022-08-21T06:48:56.225Z,72.24
2022-08-21T06:51:26.482Z,71.42
2022-08-21T06:53:54.922Z,71.83
2022-08-21T06:56:26.139Z,71.50
2022-08-21T06:58:56.814Z,71.43
2022-08-21T07:04:00.012Z,73.29
2022-08-21T07:06:34.050Z,72.00
2022-08-21T07:09:04.014Z,71.87
2022-08-21T07:11:38.457Z,70.90
2022-08-21T07:14:20.074Z,70.57
2022-08-21T07:16:49.038Z,69.63
2022-08-21T07:19:17.934Z,70.03
2022-08-21T07:21:46.246Z,70.41
2022-08-21T07:24:21.029Z,70.21
2022-08-21T07:26:51.047Z,69.79
2022-08-21T07:29:19.845Z,70.01
2022-08-21T07:31:48.222Z,70.40
2022-08-21T07:34:18.221Z,69.04
2022-08-21T07:36:48.204Z,68.99
2022-08-21T07:39:24.792Z,67.45
2022-08-21T07:41:54.611Z,67.64
2022-08-21T07:44:25.860Z,67.10
2022-08-21T07:46:54.173Z,66.69
2022-08-21T07:49:23.190Z,67.42
2022-08-21T07:51:52.902Z,68.34
2022-08-21T07:54:33.516Z,69.01
2022-08-21T07:57:10.586Z,67.03
2022-08-21T07:59:38.993Z,66.08
2022-08-21T08:02:10.585Z,66.16
2022-08-21T08:04:50.536Z,66.65
2022-08-21T08:07:20.001Z,66.72
2022-08-21T08:09:55.924Z,65.32
2022-08-21T08:12:34.496Z,65.29
2022-08-21T08:15:05.814Z,65.58
2022-08-21T08:17:36.109Z,64.39
2022-08-21T08:20:05.619Z,64.29
2022-08-21T08:22:35.330Z,64.24
2022-08-21T08:25:09.272Z,65.15
2022-08-21T08:27:42.455Z,65.80
2022-08-21T08:30:11.593Z,64.14
2022-08-21T08:32:43.027Z,64.35
2022-08-21T08:35:11.776Z,65.75
2022-08-21T08:37:46.743Z,63.93
2022-08-21T08:40:25.566Z,64.17
2022-08-21T08:42:55.569Z,65.52
2022-08-21T08:45:27.374Z,65.06
2022-08-21T08:47:59.156Z,63.52
2022-08-21T08:50:29.011Z,63.85
2022-08-21T08:53:00.058Z,63.79
2022-08-21T08:55:36.768Z,63.69
2022-08-21T08:58:07.022Z,63.93
2022-08-21T09:00:36.970Z,62.77
2022-08-21T09:03:05.853Z,63.11
2022-08-21T09:05:39.039Z,63.08
2022-08-21T09:08:19.093Z,63.08
2022-08-21T09:10:49.571Z,61.46
2022-08-21T09:13:26.572Z,62.94
2022-08-21T09:15:59.799Z,62.66
2022-08-21T09:18:31.624Z,62.50
2022-08-21T09:21:05.316Z,62.28
2022-08-21T09:23:42.851Z,61.62
2022-08-21T09:26:13.998Z,61.03
2022-08-21T09:28:47.524Z,62.47
2022-08-21T09:31:19.091Z,60.49
2022-08-21T09:33:51.053Z,61.29
2022-08-21T09:36:26.296Z,61.18
2022-08-21T09:38:57.677Z,62.09
2022-08-21T09:41:29.650Z,62.09
2022-08-21T09:43:59.762Z,61.46
2022-08-21T09:46:29.656Z,60.58
2022-08-21T09:48:59.462Z,60.60
2022-08-21T09:51:32.276Z,60.88
2022-08-21T09:54:14.640Z,61.62
2022-08-21T09:57:11.264Z,60.81
2022-08-21T09:59:45.055Z,62.17
2022-08-21T10:02:25.968Z,60.96
2022-08-21T10:04:55.425Z,60.46
2022-08-21T10:07:28.471Z,60.04
2022-08-21T10:10:05.078Z,58.82
2022-08-21T10:12:35.327Z,60.37
2022-08-21T10:15:09.610Z,59.74
2022-08-21T10:17:40.009Z,60.20
2022-08-21T10:20:09.635Z,60.37
2022-08-21T10:22:42.774Z,59.42
2022-08-21T10:25:20.975Z,59.20
2022-08-21T10:27:52.074Z,59.69
2022-08-21T10:30:23.666Z,58.91
2022-08-21T10:32:59.809Z,59.75
2022-08-21T10:35:33.594Z,57.96
2022-08-21T10:38:33.583Z,58.93
2022-08-21T10:41:14.345Z,58.90
2022-08-21T10:43:44.780Z,57.99
2022-08-21T10:46:23.275Z,57.69
2022-08-21T10:48:54.168Z,57.15
2022-08-21T10:51:29.098Z,58.18
2022-08-21T10:53:59.878Z,57.84
2022-08-21T10:56:38.149Z,58.07
2022-08-21T10:59:17.870Z,59.51
2022-08-21T11:01:49.605Z,58.88
2022-08-21T11:04:20.450Z,57.84
2022-08-21T11:06:54.670Z,58.71
2022-08-21T11:09:24.204Z,57.37
2022-08-21T11:11:59.513Z,57.86
2022-08-21T11:14:50.213Z,57.22
2022-08-21T11:17:22.095Z,57.43
2022-08-21T11:19:52.230Z,57.03
2022-08-21T11:22:23.696Z,57.12
2022-08-21T11:24:53.351Z,57.51
2022-08-21T11:27:23.693Z,56.86
2022-08-21T11:29:52.717Z,56.83
2022-08-21T11:32:32.275Z,57.28
2022-08-21T11:35:05.709Z,58.79
2022-08-21T11:37:39.232Z,58.20
2022-08-21T11:40:08.756Z,58.31
2022-08-21T11:42:38.452Z,57.34
2022-08-21T11:45:12.745Z,58.52
2022-08-21T11:47:52.025Z,57.00
2022-08-21T11:50:35.605Z,56.80
2022-08-21T11:53:06.906Z,56.41
2022-08-21T11:55:40.690Z,56.83
2022-08-21T11:58:12.574Z,56.45
2022-08-21T12:00:42.657Z,57.05
2022-08-21T12:03:15.752Z,56.67
2022-08-21T12:05:46.114Z,56.65
2022-08-21T12:08:20.679Z,56.54
2022-08-21T12:11:02.434Z,57.61
2022-08-21T12:13:40.139Z,56.96
2022-08-21T12:16:12.114Z,56.56
2022-08-21T12:18:48.328Z,58.04
2022-08-21T12:24:18.143Z,57.84
2022-08-21T12:26:51.966Z,58.07
2022-08-21T12:29:24.036Z,58.25
2022-08-21T12:31:56.652Z,59.22
2022-08-21T12:34:27.320Z,59.35
2022-08-21T12:36:57.460Z,59.84
2022-08-21T12:39:26.888Z,59.43
2022-08-21T12:42:01.231Z,59.44
2022-08-21T12:44:39.220Z,60.04
2022-08-21T12:47:08.924Z,60.05
2022-08-21T12:49:48.437Z,60.23
2022-08-21T12:52:24.713Z,59.15
2022-08-21T12:54:53.320Z,59.76
2022-08-21T12:57:25.674Z,61.33
2022-08-21T12:59:54.864Z,61.00
2022-08-21T13:02:25.364Z,60.37
2022-08-21T13:04:56.330Z,60.64
2022-08-21T13:07:27.312Z,60.93
2022-08-21T13:09:56.642Z,61.00
2022-08-21T13:12:32.746Z,61.07
2022-08-21T13:15:09.009Z,61.94
2022-08-21T13:17:38.772Z,61.30
2022-08-21T13:20:22.981Z,60.68
2022-08-21T13:22:54.907Z,60.81
2022-08-21T13:25:24.093Z,61.71
2022-08-21T13:27:59.573Z,61.69
2022-08-21T13:30:28.395Z,62.42
2022-08-21T13:32:58.547Z,63.22
2022-08-21T13:35:30.967Z,63.27
2022-08-21T13:38:03.405Z,63.28
2022-08-21T13:40:33.158Z,63.07
2022-08-21T13:43:12.076Z,63.51
2022-08-21T13:45:44.301Z,65.50
2022-08-21T13:48:12.920Z,66.83
2022-08-21T13:50:45.923Z,67.27
2022-08-21T13:53:23.529Z,67.81
2022-08-21T13:55:54.523Z,67.15
2022-08-21T13:58:28.708Z,68.94
2022-08-21T14:00:57.080Z,69.80
2022-08-21T14:03:30.038Z,69.03
2022-08-21T14:06:00.357Z,70.53
2022-08-21T14:08:31.903Z,70.80
2022-08-21T14:11:00.702Z,71.24
2022-08-21T14:13:35.919Z,71.98
2022-08-21T14:16:13.628Z,72.22
2022-08-21T14:18:45.766Z,71.75
2022-08-21T14:21:27.446Z,72.67
2022-08-21T14:24:06.259Z,72.55
2022-08-21T14:26:43.359Z,72.04
2022-08-21T14:29:12.004Z,72.72
2022-08-21T14:31:43.125Z,70.16
2022-08-21T14:34:18.986Z,71.53
2022-08-21T14:36:50.562Z,71.06
2022-08-21T14:39:25.918Z,71.45
2022-08-21T14:41:54.945Z,72.05
2022-08-21T14:44:23.783Z,72.48
2022-08-21T14:46:55.550Z,70.99
2022-08-21T14:49:28.813Z,72.93
2022-08-21T14:51:59.482Z,72.53
2022-08-21T14:54:31.233Z,71.35
2022-08-21T14:57:00.997Z,72.34
2022-08-21T14:59:32.873Z,73.31
2022-08-21T15:02:01.316Z,73.42
2022-08-21T15:04:31.738Z,73.18
2022-08-21T15:07:01.435Z,73.63
2022-08-21T15:09:31.143Z,72.60
2022-08-21T15:12:00.444Z,72.87
2022-08-21T15:14:30.767Z,72.92
2022-08-21T15:17:01.054Z,73.69
2022-08-21T15:19:30.597Z,73.87
2022-08-21T15:22:04.263Z,75.04
2022-08-21T15:24:38.892Z,74.24
2022-08-21T15:27:08.810Z,77.52
2022-08-21T15:29:42.765Z,75.20
2022-08-21T15:32:19.853Z,74.35
2022-08-21T15:34:48.637Z,76.32
2022-08-21T15:37:26.116Z,74.50
2022-08-21T15:39:55.514Z,75.82
2022-08-21T15:42:27.674Z,74.92
2022-08-21T15:44:56.521Z,75.36
2022-08-21T15:47:28.424Z,75.06
2022-08-21T15:49:57.077Z,73.50
2022-08-21T15:52:29.499Z,74.26
2022-08-21T15:54:58.052Z,74.52
2022-08-21T15:57:27.611Z,74.95
2022-08-21T15:59:58.390Z,74.78
2022-08-21T16:02:31.314Z,74.18
2022-08-21T16:05:00.053Z,75.58
2022-08-21T16:07:30.999Z,75.11
2022-08-21T16:09:59.633Z,73.37
2022-08-21T16:12:31.851Z,75.83
2022-08-21T16:15:00.603Z,76.53
2022-08-21T16:17:30.813Z,76.56
2022-08-21T16:20:02.973Z,75.22
2022-08-21T16:22:43.876Z,75.70
2022-08-21T16:25:19.932Z,77.19
2022-08-21T16:27:50.524Z,75.97
2022-08-21T16:30:26.438Z,77.11
2022-08-21T16:33:03.487Z,75.37
2022-08-21T16:35:32.635Z,76.18
2022-08-21T16:38:05.543Z,76.91
2022-08-21T16:40:34.429Z,76.21
2022-08-21T16:43:04.184Z,77.08
2022-08-21T16:45:33.349Z,76.32
2022-08-21T16:48:04.659Z,76.82
2022-08-21T16:50:33.006Z,77.91
2022-08-21T16:53:07.131Z,79.41
2022-08-21T16:55:36.986Z,79.61
2022-08-21T16:58:07.182Z,78.92
2022-08-21T17:00:35.569Z,79.84
2022-08-21T17:03:08.164Z,79.82
2022-08-21T17:05:36.843Z,80.41
2022-08-21T17:08:11.971Z,79.95
2022-08-21T17:10:42.015Z,78.48
2022-08-21T17:13:13.146Z,80.81
2022-08-21T17:15:41.935Z,78.15
2022-08-21T17:18:12.814Z,76.91
2022-08-21T17:20:41.159Z,79.39
2022-08-21T17:23:13.284Z,79.37
2022-08-21T17:25:43.555Z,79.96
2022-08-21T17:28:18.973Z,81.12
2022-08-21T17:30:47.338Z,81.78
2022-08-21T17:33:18.153Z,79.30
2022-08-21T17:35:46.535Z,78.33
2022-08-21T17:38:18.899Z,77.80
2022-08-21T17:40:49.843Z,78.00
2022-08-21T17:43:19.901Z,78.73
2022-08-21T17:45:50.604Z,78.86
2022-08-21T17:48:25.490Z,79.82
2022-08-21T17:50:58.807Z,80.45
2022-08-21T17:53:27.980Z,79.42
2022-08-21T17:55:58.301Z,78.38
2022-08-21T17:58:27.381Z,77.60
2022-08-21T18:00:56.209Z,78.62
2022-08-21T18:03:28.159Z,80.21
2022-08-21T18:05:58.831Z,79.27
2022-08-21T18:08:29.557Z,79.47
2022-08-21T18:10:59.322Z,79.54
2022-08-21T18:13:29.139Z,80.35
2022-08-21T18:15:57.713Z,79.10
2022-08-21T18:18:32.120Z,79.99
2022-08-21T18:21:00.810Z,79.39
2022-08-21T18:23:43.824Z,78.72
2022-08-21T18:26:15.537Z,79.26
2022-08-21T18:28:44.331Z,78.93
2022-08-21T18:31:14.229Z,78.50
2022-08-21T18:33:57.021Z,78.66
2022-08-21T18:36:27.617Z,77.43
2022-08-21T18:39:25.835Z,76.93
2022-08-21T18:41:54.746Z,76.10
2022-08-21T18:44:27.417Z,77.40
2022-08-21T18:46:57.294Z,79.31
2022-08-21T18:49:29.219Z,78.54
2022-08-21T18:52:05.754Z,78.41
2022-08-21T18:54:34.367Z,79.73
2022-08-21T18:57:12.554Z,78.82
2022-08-21T18:59:47.064Z,78.67
2022-08-21T19:02:27.424Z,78.34
2022-08-21T19:05:02.888Z,79.10
2022-08-21T19:07:41.398Z,79.07
2022-08-21T19:10:28.595Z,79.62
2022-08-21T19:13:02.008Z,80.13
2022-08-21T19:15:45.724Z,79.86
2022-08-21T19:18:15.642Z,80.29
2022-08-21T19:23:35.571Z,79.43
2022-08-21T19:26:08.246Z,79.89
2022-08-21T19:28:41.303Z,79.97
2022-08-21T19:31:16.637Z,79.82
2022-08-21T19:33:57.685Z,79.98
2022-08-21T19:36:34.035Z,79.58
2022-08-21T19:42:03.862Z,81.04
2022-08-21T19:44:43.110Z,80.18
2022-08-21T19:47:29.387Z,81.26
2022-08-21T19:50:17.415Z,81.74
2022-08-21T19:52:55.665Z,82.23
2022-08-21T19:55:29.498Z,82.00
2022-08-21T19:57:58.051Z,81.28
2022-08-21T20:00:30.873Z,83.19
2022-08-21T20:03:05.368Z,83.10
2022-08-21T20:05:39.858Z,81.22
2022-08-21T20:08:20.192Z,82.21
2022-08-21T20:10:50.193Z,81.60
2022-08-21T20:13:22.885Z,82.85
2022-08-21T20:16:01.083Z,83.35
2022-08-21T20:18:35.212Z,83.88
2022-08-21T20:21:08.309Z,83.69
2022-08-21T20:23:48.266Z,82.88
2022-08-21T20:26:24.072Z,82.31
2022-08-21T20:31:48.852Z,82.79
2022-08-21T20:34:18.588Z,83.54
2022-08-21T20:36:50.927Z,83.23
2022-08-21T20:39:23.822Z,82.92
2022-08-21T20:41:53.142Z,82.69
2022-08-21T20:44:21.858Z,82.16
2022-08-21T20:46:54.311Z,82.24
2022-08-21T20:49:23.126Z,81.47
2022-08-21T20:51:54.479Z,82.05
2022-08-21T20:54:24.617Z,81.93
2022-08-21T20:56:55.894Z,81.00
2022-08-21T20:59:34.473Z,80.11
2022-08-21T21:05:05.392Z,81.63
2022-08-21T21:07:36.316Z,82.42
2022-08-21T21:10:07.343Z,81.05
2022-08-21T21:13:01.480Z,81.43
2022-08-21T21:15:35.659Z,81.52
2022-08-21T21:18:13.100Z,81.39
2022-08-21T21:20:46.406Z,83.31
2022-08-21T21:23:18.348Z,81.44
2022-08-21T21:25:57.154Z,82.95
2022-08-21T21:28:27.440Z,81.77
2022-08-21T21:31:05.515Z,81.89
2022-08-21T21:33:37.996Z,82.44
2022-08-21T21:36:10.445Z,82.01
2022-08-21T21:41:32.212Z,83.40
2022-08-21T21:44:09.844Z,82.81
2022-08-21T21:46:53.018Z,81.94
2022-08-21T21:49:36.373Z,81.90
2022-08-21T21:52:19.398Z,82.50
2022-08-21T21:54:58.421Z,83.65
2022-08-21T21:57:43.308Z,82.38
2022-08-21T22:00:18.994Z,82.80
2022-08-21T22:02:55.142Z,82.65
2022-08-21T22:05:42.549Z,83.49
2022-08-21T22:08:16.067Z,84.56
2022-08-21T22:10:47.293Z,82.65
2022-08-21T22:13:27.286Z,84.99
2022-08-21T22:15:59.166Z,84.02
2022-08-21T22:18:30.127Z,84.31
2022-08-21T22:21:00.541Z,83.81
2022-08-21T22:23:32.411Z,83.43
2022-08-21T22:26:04.067Z,81.80
2022-08-21T22:28:37.108Z,83.19
2022-08-21T22:31:18.242Z,81.67
2022-08-21T22:34:04.160Z,82.43
2022-08-21T22:36:38.539Z,82.85
2022-08-21T22:39:20.485Z,82.28
2022-08-21T22:41:58.822Z,82.17
2022-08-21T22:44:31.273Z,80.68
2022-08-21T22:47:08.867Z,79.93
2022-08-21T22:49:47.064Z,79.46
2022-08-21T22:52:31.672Z,80.11
2022-08-21T22:55:12.511Z,79.01
2022-08-21T22:57:42.315Z,79.36
2022-08-21T23:00:16.759Z,81.40
2022-08-21T23:02:58.633Z,81.05
2022-08-21T23:05:36.067Z,79.83
2022-08-21T23:08:24.350Z,80.82
2022-08-21T23:10:59.730Z,82.95
2022-08-21T23:13:29.899Z,81.97
2022-08-21T23:16:03.934Z,82.47
2022-08-21T23:18:49.713Z,80.91
2022-08-21T23:21:28.192Z,79.87
2022-08-21T23:24:04.241Z,80.80
2022-08-21T23:26:40.430Z,80.58
2022-08-21T23:32:17.277Z,80.97
2022-08-21T23:34:57.510Z,81.65
2022-08-21T23:40:50.508Z,82.92
2022-08-21T23:43:25.207Z,82.99
2022-08-21T23:46:00.961Z,82.14
2022-08-21T23:48:39.713Z,84.07
2022-08-21T23:51:14.114Z,82.23
2022-08-21T23:53:56.356Z,82.64
2022-08-21T23:56:27.536Z,83.97
2022-08-21T23:59:00.381Z,81.92
